createdAt,value
2019-04-23T00:02:50.724Z,56.40
2019-04-23T00:05:33.610Z,57.30
2019-04-23T00:10:25.247Z,58.70
2019-04-23T00:13:09.068Z,59.40
2019-04-23T00:15:26.744Z,59.80
2019-04-23T00:18:12.471Z,60.50
2019-04-23T00:20:43.814Z,62.20
2019-04-23T00:23:02.018Z,62.10
2019-04-23T00:25:47.085Z,63.00
2019-04-23T00:28:06.544Z,64.10
2019-04-23T00:30:48.115Z,64.50
2019-04-23T00:33:07.470Z,65.40
2019-04-23T00:35:32.429Z,66.10
2019-04-23T00:38:06.575Z,66.70
2019-04-23T00:40:32.095Z,67.40
2019-04-23T00:43:01.999Z,67.20
2019-04-23T00:45:41.120Z,67.80
2019-04-23T00:48:09.311Z,68.60
2019-04-23T00:53:04.067Z,69.90
2019-04-23T00:55:35.598Z,70.10
2019-04-23T00:58:15.832Z,70.40
2019-04-23T01:00:44.953Z,70.70
2019-04-23T01:08:16.550Z,71.80
2019-04-23T01:10:55.187Z,71.70
2019-04-23T01:13:28.101Z,71.60
2019-04-23T01:15:52.562Z,72.50
2019-04-23T01:18:38.073Z,74.00
2019-04-23T01:20:53.539Z,73.50
2019-04-23T01:23:20.695Z,74.50
2019-04-23T01:25:58.833Z,74.50
2019-04-23T01:31:16.917Z,74.70
2019-04-23T01:33:46.640Z,75.10
2019-04-23T01:36:22.135Z,75.70
2019-04-23T01:38:45.879Z,75.50
2019-04-23T01:43:47.139Z,76.80
2019-04-23T01:46:16.205Z,77.40
2019-04-23T01:48:51.969Z,77.50
2019-04-23T01:51:24.490Z,78.00
2019-04-23T01:56:19.446Z,78.10
2019-04-23T02:01:19.154Z,78.20
2019-04-23T02:06:20.553Z,77.70
2019-04-23T02:08:56.899Z,78.80
2019-04-23T02:11:20.221Z,78.80
2019-04-23T02:14:00.235Z,79.00
2019-04-23T02:16:19.393Z,78.80
2019-04-23T02:18:59.554Z,79.00
2019-04-23T02:21:33.453Z,79.30
2019-04-23T02:24:03.670Z,79.60
2019-04-23T02:26:36.948Z,80.00
2019-04-23T02:29:24.900Z,80.70
2019-04-23T02:34:29.227Z,80.50
2019-04-23T02:36:54.530Z,81.40
2019-04-23T02:39:12.604Z,81.70
2019-04-23T02:41:55.946Z,82.00
2019-04-23T02:49:36.005Z,82.80
2019-04-23T02:52:03.971Z,83.00
2019-04-23T02:56:51.252Z,82.90
2019-04-23T02:59:32.532Z,82.60
2019-04-23T03:02:05.471Z,83.20
2019-04-23T03:04:33.956Z,83.20
2019-04-23T03:07:16.142Z,83.30
2019-04-23T03:09:36.665Z,83.00
2019-04-23T03:12:00.575Z,83.10
2019-04-23T03:14:25.127Z,83.20
2019-04-23T03:16:56.550Z,83.20
2019-04-23T03:19:31.914Z,82.80
2019-04-23T03:22:01.490Z,83.30
2019-04-23T03:24:45.817Z,83.50
2019-04-23T03:42:11.963Z,85.10
2019-04-23T03:45:16.610Z,84.40
2019-04-23T03:47:34.907Z,84.40
2019-04-23T03:50:23.357Z,83.90
2019-04-23T03:52:35.411Z,84.40
2019-04-23T03:55:19.171Z,83.80
2019-04-23T03:57:30.726Z,83.20
2019-04-23T04:05:05.836Z,83.80
2019-04-23T04:08:02.558Z,83.40
2019-04-23T04:10:02.168Z,83.10
2019-04-23T04:12:36.052Z,83.50
2019-04-23T04:18:03.865Z,84.10
2019-04-23T04:22:50.189Z,83.30
2019-04-23T04:25:06.688Z,83.20
2019-04-23T04:27:45.275Z,83.00
2019-04-23T04:33:06.043Z,84.40
2019-04-23T04:35:46.693Z,84.10
2019-04-23T04:38:22.490Z,83.10
2019-04-23T04:45:42.237Z,82.30
2019-04-23T04:47:58.583Z,82.90
2019-04-23T04:50:35.258Z,82.50
2019-04-23T04:53:16.777Z,82.80
2019-04-23T04:55:41.267Z,83.20
2019-04-23T05:00:45.002Z,82.80
2019-04-23T05:06:01.769Z,81.10
2019-04-23T05:08:05.225Z,80.70
2019-04-23T05:13:35.316Z,79.00
2019-04-23T05:15:58.215Z,79.40
2019-04-23T05:18:28.852Z,79.60
2019-04-23T05:21:06.443Z,79.70
2019-04-23T05:23:42.788Z,78.90
2019-04-23T05:25:58.830Z,78.40
2019-04-23T05:28:36.639Z,78.00
2019-04-23T05:30:59.987Z,76.40
2019-04-23T05:33:34.336Z,73.20
2019-04-23T05:36:18.343Z,71.20
2019-04-23T05:38:55.351Z,69.20
2019-04-23T05:41:10.055Z,67.30
2019-04-23T05:43:38.022Z,66.70
2019-04-23T05:46:05.700Z,66.10
2019-04-23T05:48:35.205Z,65.20
2019-04-23T05:53:39.703Z,63.40
2019-04-23T05:56:06.443Z,63.80
2019-04-23T05:58:37.161Z,63.20
2019-04-23T06:01:45.680Z,63.70
2019-04-23T06:03:56.994Z,62.80
2019-04-23T06:06:29.791Z,61.80
2019-04-23T06:08:53.249Z,61.50
2019-04-23T06:11:30.756Z,60.70
2019-04-23T06:14:06.347Z,59.80
2019-04-23T06:16:34.629Z,59.50
2019-04-23T06:19:02.715Z,60.40
2019-04-23T06:21:38.330Z,60.00
2019-04-23T06:24:06.315Z,60.40
2019-04-23T06:29:05.407Z,61.20
2019-04-23T06:31:47.194Z,60.70
2019-04-23T06:36:38.845Z,60.00
2019-04-23T06:39:06.908Z,60.50
2019-04-23T06:41:46.537Z,60.50
2019-04-23T06:44:19.561Z,60.90
2019-04-23T06:46:53.543Z,61.40
2019-04-23T06:49:22.035Z,61.10
2019-04-23T06:51:52.223Z,60.80
2019-04-23T06:54:19.128Z,61.80
2019-04-23T06:56:52.996Z,63.20
2019-04-23T06:59:17.423Z,63.20
2019-04-23T07:01:56.262Z,63.50
2019-04-23T07:04:17.952Z,63.80
2019-04-23T07:06:59.034Z,63.50
2019-04-23T07:09:20.641Z,62.80
2019-04-23T07:11:44.789Z,62.50
2019-04-23T07:14:17.424Z,63.30
2019-04-23T07:16:49.901Z,61.10
2019-04-23T07:19:25.014Z,60.10
2019-04-23T07:21:51.235Z,58.80
2019-04-23T07:24:15.121Z,59.00
2019-04-23T07:26:55.445Z,57.80
2019-04-23T07:29:50.520Z,57.60
2019-04-23T07:32:05.278Z,57.30
2019-04-23T07:34:28.494Z,56.40
2019-04-23T07:36:59.069Z,55.30
2019-04-23T07:40:11.270Z,55.60
2019-04-23T07:45:02.477Z,55.40
2019-04-23T07:47:35.861Z,54.60
2019-04-23T07:50:23.442Z,52.50
2019-04-23T07:52:42.697Z,51.40
2019-04-23T07:55:21.562Z,50.00
2019-04-23T07:57:40.198Z,48.60
2019-04-23T08:00:07.589Z,48.30
2019-04-23T08:02:38.416Z,46.10
2019-04-23T08:07:47.284Z,43.90
2019-04-23T08:10:17.005Z,43.40
2019-04-23T08:15:14.915Z,43.30
2019-04-23T08:17:42.683Z,42.80
2019-04-23T08:20:11.221Z,43.00
2019-04-23T08:22:45.807Z,42.50
2019-04-23T08:25:42.572Z,41.30
2019-04-23T08:28:09.745Z,40.80
2019-04-23T08:30:32.359Z,42.80
2019-04-23T08:33:03.700Z,42.90
2019-04-23T08:40:47.265Z,43.80
2019-04-23T08:43:19.162Z,43.30
2019-04-23T08:46:09.850Z,43.60
2019-04-23T08:48:33.872Z,42.90
2019-04-23T08:51:31.906Z,43.60
2019-04-23T08:56:11.929Z,44.40
2019-04-23T09:01:05.522Z,45.20
2019-04-23T09:03:36.209Z,46.00
2019-04-23T09:08:36.953Z,45.90
2019-04-23T09:11:19.445Z,46.20
2019-04-23T09:13:53.280Z,47.20
2019-04-23T09:16:09.181Z,46.20
2019-04-23T09:18:42.345Z,46.10
2019-04-23T09:21:10.533Z,47.60
2019-04-23T09:26:22.164Z,48.20
2019-04-23T09:28:40.131Z,48.50
2019-04-23T09:31:40.304Z,49.00
2019-04-23T09:34:12.866Z,48.50
2019-04-23T09:36:40.582Z,47.50
2019-04-23T09:41:42.096Z,48.20
2019-04-23T09:47:00.706Z,47.90
2019-04-23T09:49:34.895Z,48.10
2019-04-23T09:52:00.795Z,49.70
2019-04-23T09:54:32.464Z,49.60
2019-04-23T09:56:52.694Z,48.50
2019-04-23T09:59:34.201Z,49.10
2019-04-23T10:01:57.709Z,50.20
2019-04-23T10:04:26.611Z,49.00
2019-04-23T10:06:40.759Z,46.70
2019-04-23T10:09:10.670Z,47.00
2019-04-23T10:11:40.945Z,48.30
2019-04-23T10:14:10.575Z,47.60
2019-04-23T10:16:41.161Z,46.40
2019-04-23T10:19:10.065Z,45.50
2019-04-23T10:21:39.445Z,44.50
2019-04-23T10:24:09.459Z,45.70
2019-04-23T10:26:39.930Z,43.70
2019-04-23T10:29:11.774Z,42.10
2019-04-23T10:31:42.112Z,41.50
2019-04-23T10:34:12.240Z,41.30
2019-04-23T10:36:42.283Z,41.70
2019-04-23T10:39:22.086Z,38.90
2019-04-23T10:41:48.798Z,39.20
2019-04-23T10:44:21.351Z,37.90
2019-04-23T10:47:35.467Z,38.80
2019-04-23T10:50:32.540Z,37.60
2019-04-23T10:55:07.905Z,36.20
2019-04-23T10:57:31.245Z,35.90
2019-04-23T11:00:02.419Z,36.10
2019-04-23T11:02:41.262Z,36.00
2019-04-23T11:05:15.859Z,35.60
2019-04-23T11:07:42.071Z,37.20
2019-04-23T11:10:23.538Z,35.40
2019-04-23T11:12:42.120Z,35.00
2019-04-23T11:17:46.050Z,34.20
2019-04-23T11:20:26.130Z,33.10
2019-04-23T11:22:45.088Z,32.20
2019-04-23T11:25:26.592Z,33.30
2019-04-23T11:30:25.874Z,32.40
2019-04-23T11:32:57.084Z,31.30
2019-04-23T11:35:22.769Z,30.40
2019-04-23T11:38:38.852Z,31.00
2019-04-23T11:40:23.293Z,31.50
2019-04-23T11:43:03.200Z,32.20
2019-04-23T11:45:36.646Z,33.20
2019-04-23T11:50:38.050Z,32.30
2019-04-23T11:53:07.404Z,33.50
2019-04-23T11:55:34.261Z,33.40
2019-04-23T11:57:59.212Z,34.30
2019-04-23T12:00:30.902Z,32.90
2019-04-23T12:02:56.206Z,33.10
2019-04-23T12:05:50.050Z,34.00
2019-04-23T12:08:25.149Z,33.10
2019-04-23T12:11:24.196Z,33.00
2019-04-23T12:13:37.900Z,32.10
2019-04-23T12:16:00.536Z,32.40
2019-04-23T12:18:58.122Z,33.40
2019-04-23T12:21:04.443Z,34.40
2019-04-23T12:23:52.027Z,35.00
2019-04-23T12:26:11.498Z,35.00
2019-04-23T12:28:40.234Z,34.40
2019-04-23T12:31:11.885Z,35.60
2019-04-23T12:36:15.136Z,35.20
2019-04-23T12:38:45.199Z,35.60
2019-04-23T12:41:13.798Z,37.40
2019-04-23T12:43:34.440Z,36.50
2019-04-23T12:46:02.170Z,36.40
2019-04-23T12:48:49.461Z,37.30
2019-04-23T12:51:08.167Z,35.70
2019-04-23T12:53:43.462Z,36.40
2019-04-23T12:56:10.799Z,36.60
2019-04-23T12:58:34.058Z,36.30
2019-04-23T13:01:16.370Z,36.50
2019-04-23T13:03:41.573Z,36.20
2019-04-23T13:06:13.272Z,36.20
2019-04-23T13:08:44.231Z,35.30
2019-04-23T13:11:16.780Z,37.00
2019-04-23T13:13:48.441Z,37.10
2019-04-23T13:16:22.170Z,36.10
2019-04-23T13:18:49.731Z,36.70
2019-04-23T13:21:40.203Z,37.00
2019-04-23T13:23:41.009Z,37.00
2019-04-23T13:26:21.514Z,39.50
2019-04-23T13:28:45.369Z,37.90
2019-04-23T13:31:16.303Z,37.70
2019-04-23T13:33:45.577Z,39.10
2019-04-23T13:38:51.490Z,37.40
2019-04-23T13:43:48.360Z,38.10
2019-04-23T13:46:17.909Z,38.20
2019-04-23T13:48:46.971Z,38.00
2019-04-23T13:51:28.786Z,37.50
2019-04-23T13:56:35.244Z,38.70
2019-04-23T13:58:51.812Z,38.90
2019-04-23T14:01:29.058Z,39.50
2019-04-23T14:04:01.395Z,40.40
2019-04-23T14:06:29.683Z,40.50
2019-04-23T14:09:01.837Z,40.50
2019-04-23T14:11:26.397Z,39.70
2019-04-23T14:14:08.687Z,40.20
2019-04-23T14:16:48.742Z,40.90
2019-04-23T14:19:12.977Z,41.40
2019-04-23T14:21:36.990Z,41.20
2019-04-23T14:24:17.745Z,40.60
2019-04-23T14:26:35.221Z,40.00
2019-04-23T14:29:18.972Z,40.40
2019-04-23T14:31:40.637Z,39.60
2019-04-23T14:34:09.172Z,39.50
2019-04-23T14:36:42.558Z,39.90
2019-04-23T14:39:06.174Z,39.70
2019-04-23T14:41:36.306Z,39.00
2019-04-23T14:44:19.660Z,39.50
2019-04-23T14:46:58.411Z,40.00
2019-04-23T14:49:11.247Z,40.40
2019-04-23T14:51:47.793Z,41.30
2019-04-23T14:54:13.034Z,40.90
2019-04-23T14:56:44.822Z,41.30
2019-04-23T14:59:21.811Z,42.90
2019-04-23T15:04:14.783Z,41.80
2019-04-23T15:06:54.824Z,42.50
2019-04-23T15:09:22.971Z,41.50
2019-04-23T15:11:56.382Z,41.40
2019-04-23T15:14:16.844Z,41.50
2019-04-23T15:19:35.015Z,41.80
2019-04-23T15:22:04.822Z,44.40
2019-04-23T15:24:22.498Z,42.10
2019-04-23T15:27:45.703Z,42.90
2019-04-23T15:29:02.745Z,43.30
2019-04-23T15:31:55.457Z,43.20
2019-04-23T15:34:33.010Z,43.80
2019-04-23T15:37:01.048Z,43.60
2019-04-23T15:39:24.449Z,44.10
2019-04-23T15:42:00.883Z,44.90
2019-04-23T15:44:32.162Z,44.80
2019-04-23T15:47:12.610Z,44.50
2019-04-23T15:49:27.263Z,44.60
2019-04-23T15:54:30.234Z,45.60
2019-04-23T15:56:57.932Z,44.90
2019-04-23T15:59:29.319Z,45.70
2019-04-23T16:01:43.562Z,45.60
2019-04-23T16:03:57.254Z,45.50
2019-04-23T16:06:30.197Z,45.80
2019-04-23T16:09:17.763Z,46.10
2019-04-23T16:11:58.092Z,46.60
2019-04-23T16:17:04.523Z,46.90
2019-04-23T16:22:16.609Z,47.20
2019-04-23T16:24:51.811Z,46.80
2019-04-23T16:27:07.965Z,47.00
2019-04-23T16:29:48.951Z,47.70
2019-04-23T16:32:10.053Z,48.00
2019-04-23T16:34:33.324Z,48.50
2019-04-23T16:37:08.205Z,48.40
2019-04-23T16:39:30.780Z,48.10
2019-04-23T16:42:08.547Z,48.50
2019-04-23T16:47:16.837Z,48.40
2019-04-23T16:49:58.270Z,48.40
2019-04-23T16:52:08.225Z,48.80
2019-04-23T16:54:43.438Z,48.20
2019-04-23T16:57:24.465Z,48.20
2019-04-23T17:00:06.625Z,47.60
2019-04-23T17:04:39.390Z,48.40
2019-04-23T17:10:00.601Z,47.60
2019-04-23T17:12:10.892Z,47.70
2019-04-23T17:14:44.323Z,47.70
2019-04-23T17:17:08.121Z,48.60
2019-04-23T17:19:41.072Z,48.10
2019-04-23T17:22:11.335Z,48.30
2019-04-23T17:24:40.346Z,49.00
2019-04-23T17:27:16.636Z,49.00
2019-04-23T17:29:41.723Z,49.00
2019-04-23T17:32:09.777Z,49.20
2019-04-23T17:34:47.899Z,49.30
2019-04-23T17:37:21.704Z,49.50
2019-04-23T17:47:41.220Z,50.80
2019-04-23T17:50:15.473Z,50.60
2019-04-23T17:52:42.000Z,51.10
2019-04-23T17:55:13.501Z,50.70
2019-04-23T18:03:03.163Z,51.20
2019-04-23T18:10:24.782Z,51.70
2019-04-23T18:12:51.508Z,52.00
2019-04-23T18:15:14.832Z,52.70
2019-04-23T18:17:52.616Z,52.80
2019-04-23T18:20:23.311Z,53.20
2019-04-23T18:22:53.914Z,53.40
2019-04-23T18:25:37.461Z,53.40
2019-04-23T18:28:01.786Z,53.70
2019-04-23T18:33:54.657Z,54.20
2019-04-23T18:36:08.220Z,54.70
2019-04-23T18:38:40.778Z,55.00
2019-04-23T18:41:19.509Z,55.20
2019-04-23T18:43:44.643Z,55.60
2019-04-23T18:46:18.527Z,55.70
2019-04-23T18:51:12.423Z,56.10
2019-04-23T18:56:19.314Z,56.80
2019-04-23T19:01:25.363Z,57.20
2019-04-23T19:03:57.673Z,57.30
2019-04-23T19:11:44.544Z,58.00
2019-04-23T19:13:57.389Z,58.30
2019-04-23T19:16:41.539Z,58.50
2019-04-23T19:19:05.404Z,58.70
2019-04-23T19:24:21.825Z,59.10
2019-04-23T19:29:12.979Z,61.50
2019-04-23T19:31:55.658Z,61.20
2019-04-23T19:34:30.099Z,62.50
2019-04-23T19:39:26.354Z,61.70
2019-04-23T19:41:59.456Z,62.00
2019-04-23T19:44:27.901Z,62.60
2019-04-23T19:49:37.071Z,64.40
2019-04-23T19:51:56.741Z,63.60
2019-04-23T19:54:42.879Z,63.70
2019-04-23T19:59:31.746Z,64.10
2019-04-23T20:04:29.407Z,64.70
2019-04-23T20:07:14.456Z,65.10
2019-04-23T20:11:57.363Z,65.30
2019-04-23T20:14:24.091Z,65.30
2019-04-23T20:17:17.659Z,65.40
2019-04-23T20:19:33.069Z,65.70
2019-04-23T20:21:59.201Z,65.80
2019-04-23T20:27:06.188Z,66.00
2019-04-23T20:30:02.477Z,66.20
2019-04-23T20:37:25.830Z,67.10
2019-04-23T20:40:08.697Z,67.40
2019-04-23T20:42:22.294Z,67.20
2019-04-23T20:45:06.333Z,67.40
2019-04-23T20:47:40.560Z,67.50
2019-04-23T20:49:47.966Z,67.70
2019-04-23T20:52:35.443Z,68.00
2019-04-23T20:55:05.201Z,68.30
2019-04-23T20:57:43.567Z,68.40
2019-04-23T21:05:17.895Z,69.20
2019-04-23T21:07:54.559Z,69.30
2019-04-23T21:15:23.757Z,70.10
2019-04-23T21:17:59.447Z,70.00
2019-04-23T21:20:24.420Z,70.10
2019-04-23T21:23:01.194Z,70.50
2019-04-23T21:25:14.862Z,70.80
2019-04-23T21:27:55.458Z,70.80
2019-04-23T21:30:55.339Z,71.00
2019-04-23T21:33:12.044Z,71.20
2019-04-23T21:36:11.284Z,71.40
2019-04-23T21:38:46.418Z,71.60
2019-04-23T21:41:17.202Z,71.80
2019-04-23T21:44:05.646Z,71.80
2019-04-23T21:46:24.216Z,72.40
2019-04-23T21:51:30.882Z,72.10
2019-04-23T21:53:53.192Z,72.20
2019-04-23T21:56:17.340Z,72.20
2019-04-23T21:58:59.407Z,73.20
2019-04-23T22:01:32.032Z,72.80
2019-04-23T22:04:15.108Z,73.10
2019-04-23T22:06:37.204Z,73.50
2019-04-23T22:14:05.611Z,74.10
2019-04-23T22:16:37.056Z,74.40
2019-04-23T22:21:33.000Z,74.50
2019-04-23T22:24:02.765Z,75.20
2019-04-23T22:26:34.735Z,75.20
2019-04-23T22:31:37.786Z,75.20
2019-04-23T22:34:16.456Z,75.50
2019-04-23T22:36:29.713Z,75.70
2019-04-23T22:39:04.839Z,76.10
2019-04-23T22:41:37.182Z,75.40
2019-04-23T22:46:50.251Z,75.70
2019-04-23T22:49:25.223Z,75.80
2019-04-23T22:51:55.326Z,76.00
2019-04-23T22:54:13.927Z,76.30
2019-04-23T22:56:51.853Z,76.10
2019-04-23T22:59:26.386Z,76.20
2019-04-23T23:01:53.679Z,75.90
2019-04-23T23:04:41.078Z,75.80
2019-04-23T23:11:54.265Z,76.70
2019-04-23T23:16:54.834Z,76.90
2019-04-23T23:19:29.578Z,77.10
2019-04-23T23:24:18.215Z,77.30
2019-04-23T23:29:23.437Z,77.50
2019-04-23T23:32:02.275Z,77.50
2019-04-23T23:34:27.745Z,77.50
2019-04-23T23:37:00.163Z,77.50
2019-04-23T23:39:29.414Z,77.70
2019-04-23T23:41:58.887Z,77.90
2019-04-23T23:44:37.870Z,78.00
2019-04-23T23:49:28.066Z,78.10
2019-04-23T23:51:57.934Z,78.30
2019-04-23T23:54:21.553Z,79.10
2019-04-23T23:57:12.508Z,78.30
2019-04-23T23:59:26.751Z,79.10
